Santa Maria Pub/Capt G Allan Hancock Field
KSMX : now visible

Airfield :











YOU CAN JOIN US ON...

 
LOGIN :

Register | Disclaimer

   EN    FR    IT 

 









Legend :    VFR   Marginal VFR   IFR   Intensive IFR   Very Intensive IFR
Visi :
Ceiling :
>= 8 km
>= 3000ft
5 to 8 km
1000 to 3000 ft
1500m to 5 km
500 to 1000 ft
800 to 1500m
200 to 500 ft
< 800m
< 200 ft
Symbols :   Thunderstorms  Fog  Heavy snow  Heavy precipitations  Wind > 20 kt






- Airport Elevation : 261 ft
- IATA code : SMX


KSMX - Santa Maria Pub/Capt G Allan Hancock Field

CURRENT METAR :
  • 290551Z AUTO 26005KT 9SM BKN100 OVC120 11/08 A3014 RMK AO2 SLP210 T01110078 10144 20106 51006

EXPIRED METARs :
  • 290451Z AUTO 29004KT 9SM BKN120 11/07 A3014 RMK AO2 SLP211 T01060072
  • 290351Z 30003KT 8SM SCT120 11/08 A3013 RMK AO2 SLP205 T01110083

TAF KSMX
Valid from the 29 at 06:00 until the 30 at 06:00 UTC


290524Z 2906/3006 32008KT P6SM OVC120
FM290800 VRB03KT P6SM OVC100
FM291200 VRB03KT P6SM OVC060
FM292100 30010KT P6SM VCSH OVC050
FM300100 30008KT P6SM OVC050
FM300500 VRB03KT P6SM OVC050



MET'MAP, your aeronautical weather chart ! - Copyright ORBIFLY December 2007 - Disclaimer

ORBIFLY MET'MAP TEAM :

Programming & Development : Alexandra Zaïnal
Concept & original design : Baudouin d'Aumeries
Assistance for programming : Marc-Olivier Méhu
Technical & hardware support : Manuel Goepfert

Contact : metmap@orbifly.com




SOURCES & CREDITS :

   NOAA       Earth
Advisory